Time;durP1;ratioP1;P1;durP2;ratioP2;P2;SDS_P1;SDS_P2;PMS_P1;PMS_P2;Temp;Humidity;BMP_temperature;BMP_pressure;BME280_temperature;BME280_humidity;BME280_pressure;Samples;Min_cycle;Max_cycle;Signal;HPM_P1;HPM_P2
2022/08/21 00:01:23;;;;;;;0.30;0.30;;;;;;;15.86;65.14;100417.72;5125558;28;20023;-64
2022/08/21 00:03:50;;;;;;;0.30;0.30;;;;;;;15.83;64.94;100406.50;5125597;28;20031;-64
2022/08/21 00:06:15;;;;;;;0.30;0.30;;;;;;;15.73;65.54;100398.06;5125387;28;20104;-63
2022/08/21 00:08:41;;;;;;;0.30;0.30;;;;;;;15.68;65.85;100399.94;5107099;28;20039;-65
2022/08/21 00:11:07;;;;;;;0.20;0.20;;;;;;;15.66;65.41;100393.91;5125460;28;20023;-64
2022/08/21 00:13:33;;;;;;;0.22;0.22;;;;;;;15.68;65.32;100399.94;5125745;28;20045;-64
2022/08/21 00:15:58;;;;;;;0.30;0.30;;;;;;;15.67;65.51;100399.09;5125569;28;20047;-64
2022/08/21 00:18:24;;;;;;;0.30;0.30;;;;;;;15.68;65.41;100394.72;5125781;28;20020;-65
2022/08/21 00:20:50;;;;;;;0.30;0.30;;;;;;;15.65;66.06;100392.19;5125520;28;20024;-64
2022/08/21 00:23:16;;;;;;;0.30;0.30;;;;;;;15.62;66.51;100390.53;5125697;28;20439;-64
2022/08/21 00:25:44;;;;;;;0.30;0.30;;;;;;;15.65;67.46;100397.44;5125605;28;20030;-65
2022/08/21 00:28:10;;;;;;;0.30;0.30;;;;;;;15.70;67.41;100391.13;5125307;28;20082;-64
2022/08/21 00:30:36;;;;;;;0.30;0.30;;;;;;;15.73;67.60;100393.66;5125298;28;20030;-64
2022/08/21 00:33:02;;;;;;;0.30;0.30;;;;;;;15.75;68.42;100388.38;5125546;28;20020;-64
2022/08/21 00:35:31;;;;;;;0.20;0.20;;;;;;;15.81;68.40;100387.34;5125255;28;20083;-64
2022/08/21 00:37:57;;;;;;;0.30;0.30;;;;;;;15.89;67.48;100389.72;5125298;28;20031;-65
2022/08/21 00:40:30;;;;;;;0.30;0.30;;;;;;;15.84;68.14;100377.66;5125838;28;20023;-64
2022/08/21 00:42:56;;;;;;;0.30;0.30;;;;;;;15.87;68.07;100387.16;5107153;28;20016;-64
2022/08/21 00:45:22;;;;;;;0.22;0.22;;;;;;;15.90;68.08;100383.59;5107931;28;20016;-65
2022/08/21 00:47:49;;;;;;;0.20;0.20;;;;;;;15.91;68.00;100382.69;5129484;28;20035;-64
2022/08/21 00:50:15;;;;;;;0.20;0.20;;;;;;;15.93;67.85;100381.72;5129207;28;20039;-64
2022/08/21 00:52:41;;;;;;;0.20;0.20;;;;;;;15.92;67.95;100385.28;5129174;28;20024;-64
2022/08/21 00:55:10;;;;;;;0.30;0.30;;;;;;;15.94;68.05;100377.38;5129077;28;20103;-64
2022/08/21 00:57:44;;;;;;;0.30;0.30;;;;;;;15.93;68.49;100380.88;5129031;28;20462;-65
2022/08/21 01:00:14;;;;;;;0.20;0.20;;;;;;;15.93;68.74;100379.13;5129223;28;20027;-65
2022/08/21 01:02:40;;;;;;;0.30;0.30;;;;;;;15.97;68.34;100377.28;5111476;28;20066;-65
2022/08/21 01:05:08;;;;;;;0.68;0.65;;;;;;;15.94;68.65;100378.19;5129297;28;20028;-65
2022/08/21 01:07:34;;;;;;;0.30;0.30;;;;;;;15.95;68.81;100377.31;5128969;28;20127;-65
2022/08/21 01:09:59;;;;;;;0.30;0.30;;;;;;;15.98;68.96;100384.25;5128977;28;20019;-65
2022/08/21 01:12:25;;;;;;;0.30;0.30;;;;;;;16.01;68.53;100389.38;5128903;28;20020;-64
2022/08/21 01:14:51;;;;;;;0.30;0.30;;;;;;;15.99;68.51;100391.19;5128649;28;20034;-64
2022/08/21 01:17:17;;;;;;;0.30;0.30;;;;;;;16.00;67.90;100384.19;5128820;28;20035;-65
2022/08/21 01:19:43;;;;;;;0.20;0.20;;;;;;;15.95;67.78;100382.56;5128840;28;20023;-64
2022/08/21 01:22:09;;;;;;;0.30;0.30;;;;;;;15.87;67.45;100376.69;5128590;28;20027;-64
2022/08/21 01:24:35;;;;;;;0.20;0.20;;;;;;;15.81;67.84;100383.00;5128537;28;20051;-64
2022/08/21 01:27:01;;;;;;;0.30;0.30;;;;;;;15.78;68.20;100382.22;5128454;28;20376;-65
2022/08/21 01:29:32;;;;;;;0.30;0.30;;;;;;;15.75;68.71;100385.75;5128524;28;20026;-65
2022/08/21 01:32:03;;;;;;;0.30;0.30;;;;;;;15.79;68.88;100394.38;5110497;28;20058;-65
2022/08/21 01:34:28;;;;;;;0.20;0.20;;;;;;;15.79;69.43;100384.78;5128697;28;20038;-65
2022/08/21 01:36:53;;;;;;;0.30;0.30;;;;;;;15.86;69.35;100385.47;5110062;28;20047;-65
2022/08/21 01:39:19;;;;;;;0.30;0.30;;;;;;;15.90;69.40;100375.72;5128313;28;20020;-64
2022/08/21 01:41:44;;;;;;;0.25;0.25;;;;;;;15.95;69.78;100384.31;5128018;28;20106;-65
2022/08/21 01:44:10;;;;;;;0.30;0.30;;;;;;;15.96;69.32;100384.25;5128582;28;20035;-65
2022/08/21 01:46:35;;;;;;;0.30;0.30;;;;;;;15.96;69.29;100388.63;5109787;28;20031;-65
2022/08/21 01:49:01;;;;;;;0.20;0.20;;;;;;;15.98;69.09;100379.00;5128420;28;20075;-65
2022/08/21 01:51:26;;;;;;;0.20;0.20;;;;;;;16.00;68.93;100379.81;5128049;28;20065;-64
2022/08/21 01:53:52;;;;;;;0.28;0.28;;;;;;;16.00;68.75;100377.19;5109659;28;20024;-64
2022/08/21 01:56:17;;;;;;;0.20;0.20;;;;;;;15.99;68.80;100375.47;5128252;28;20023;-65
2022/08/21 01:58:46;;;;;;;6.72;1.58;;;;;;;15.97;69.07;100369.41;5127233;28;20019;-66
2022/08/21 02:01:12;;;;;;;0.30;0.30;;;;;;;15.97;68.82;100377.28;5127796;28;20027;-65
2022/08/21 02:03:38;;;;;;;0.30;0.30;;;;;;;15.93;69.08;100375.63;5127696;28;20015;-65
2022/08/21 02:06:05;;;;;;;0.20;0.20;;;;;;;15.95;69.41;100376.44;5127796;28;20030;-64
2022/08/21 02:08:30;;;;;;;0.25;0.25;;;;;;;15.94;69.68;100382.59;5127727;28;20126;-67
2022/08/21 02:10:56;;;;;;;0.30;0.30;;;;;;;15.86;69.98;100375.81;5127682;28;20455;-66
2022/08/21 02:13:21;;;;;;;0.30;0.30;;;;;;;15.88;70.10;100373.16;5127656;28;20031;-65
2022/08/21 02:15:47;;;;;;;0.40;0.40;;;;;;;15.85;70.43;100368.03;5127308;28;20022;-64
2022/08/21 02:18:12;;;;;;;0.30;0.30;;;;;;;15.74;70.16;100347.41;5127473;28;20092;-64
2022/08/21 02:20:41;;;;;;;0.30;0.30;;;;;;;15.84;70.47;100364.56;5127623;28;20387;-64
2022/08/21 02:23:08;;;;;;;0.30;0.30;;;;;;;15.85;70.38;100362.78;5127264;28;20080;-64
2022/08/21 02:25:34;;;;;;;0.30;0.30;;;;;;;15.80;70.72;100354.25;5127399;28;20051;-65
2022/08/21 02:28:05;;;;;;;0.30;0.30;;;;;;;15.80;71.36;100356.88;5127218;28;20039;-65
2022/08/21 02:30:37;;;;;;;0.20;0.20;;;;;;;15.79;71.46;100353.38;5127512;28;20031;-64
2022/08/21 02:33:03;;;;;;;0.30;0.30;;;;;;;15.77;72.06;100354.34;5127612;28;20032;-65
2022/08/21 02:35:29;;;;;;;0.30;0.30;;;;;;;15.76;72.25;100358.72;5108637;28;20030;-65
2022/08/21 02:37:59;;;;;;;0.30;0.30;;;;;;;15.74;72.60;100350.91;5127493;28;20493;-65
2022/08/21 02:40:30;;;;;;;0.30;0.30;;;;;;;15.77;72.06;100354.34;5127331;28;20042;-64
2022/08/21 02:42:56;;;;;;;0.30;0.30;;;;;;;15.68;72.40;100339.75;5127128;28;20132;-65
2022/08/21 02:45:21;;;;;;;0.20;0.20;;;;;;;15.74;71.95;100345.66;5108904;28;20031;-64
2022/08/21 02:47:56;;;;;;;0.20;0.20;;;;;;;15.71;72.96;100356.22;5126986;28;20461;-64
2022/08/21 02:50:31;;;;;;;2.28;2.08;;;;;;;15.71;72.37;100340.53;5126865;28;20023;-64
2022/08/21 02:52:58;;;;;;;0.30;0.30;;;;;;;15.65;73.01;100338.09;5126666;28;20015;-64
2022/08/21 02:55:26;;;;;;;2.38;1.55;;;;;;;15.67;73.02;100338.06;5126938;28;20020;-64
2022/08/21 02:57:53;;;;;;;0.25;0.25;;;;;;;15.69;72.72;100344.06;5127074;28;20039;-65
2022/08/21 03:00:20;;;;;;;0.30;0.30;;;;;;;15.59;72.60;100326.06;5127168;28;20054;-65
2022/08/21 03:02:46;;;;;;;0.80;0.80;;;;;;;15.66;72.45;100344.19;5126743;28;20031;-65
2022/08/21 03:05:12;;;;;;;0.30;0.30;;;;;;;15.64;72.48;100343.38;5126735;28;20027;-65
2022/08/21 03:07:38;;;;;;;0.30;0.30;;;;;;;15.62;72.48;100335.59;5126194;28;20443;-65
2022/08/21 03:10:05;;;;;;;0.30;0.30;;;;;;;15.64;72.54;100338.16;5126736;28;20049;-64
2022/08/21 03:12:30;;;;;;;0.30;0.30;;;;;;;15.68;71.91;100340.63;5108336;28;20055;-64
2022/08/21 03:14:55;;;;;;;0.30;0.30;;;;;;;15.68;71.59;100338.00;5126456;28;20035;-64
2022/08/21 03:17:21;;;;;;;0.30;0.30;;;;;;;15.61;71.63;100333.84;5126504;28;20027;-66
2022/08/21 03:19:46;;;;;;;0.30;0.30;;;;;;;15.54;71.29;100327.09;5108391;28;20055;-65
2022/08/21 03:22:11;;;;;;;0.30;0.30;;;;;;;15.40;71.19;100311.84;5126427;28;20054;-65
2022/08/21 03:24:37;;;;;;;0.38;0.38;;;;;;;15.40;70.95;100323.13;5108034;28;20421;-65
2022/08/21 03:27:03;;;;;;;0.28;0.28;;;;;;;15.36;71.06;100329.38;5126126;28;20103;-65
2022/08/21 03:29:28;;;;;;;0.57;0.57;;;;;;;15.32;71.05;100331.22;5126307;28;20058;-65
2022/08/21 03:31:54;;;;;;;0.30;0.30;;;;;;;15.28;71.06;100316.53;5125973;28;20083;-66
2022/08/21 03:34:21;;;;;;;0.30;0.30;;;;;;;15.24;70.91;100320.97;5125729;28;20041;-66
2022/08/21 03:36:48;;;;;;;0.20;0.20;;;;;;;15.20;71.08;100323.72;5125593;28;20077;-65
2022/08/21 03:39:15;;;;;;;0.30;0.30;;;;;;;15.15;71.09;100316.03;5125756;28;20098;-66
2022/08/21 03:41:40;;;;;;;0.30;0.30;;;;;;;15.16;71.17;100316.91;5125813;28;20053;-67
2022/08/21 03:44:05;;;;;;;0.30;0.30;;;;;;;15.11;70.95;100320.47;5125817;28;20087;-67
2022/08/21 03:46:31;;;;;;;0.20;0.20;;;;;;;15.04;70.92;100320.69;5107354;28;20031;-65
2022/08/21 03:48:57;;;;;;;0.30;0.30;;;;;;;15.01;71.16;100319.03;5125855;28;20079;-66
2022/08/21 03:51:22;;;;;;;0.30;0.30;;;;;;;14.91;71.33;100321.06;5125266;28;20024;-65
2022/08/21 03:53:47;;;;;;;0.30;0.30;;;;;;;14.85;71.63;100327.31;5125915;28;20082;-66
2022/08/21 03:56:13;;;;;;;0.30;0.30;;;;;;;14.77;71.55;100320.53;5125890;28;20030;-67
2022/08/21 03:58:38;;;;;;;0.30;0.30;;;;;;;14.67;71.81;100326.03;5126025;28;20028;-66
2022/08/21 04:01:06;;;;;;;0.30;0.30;;;;;;;14.59;72.03;100328.84;5125713;28;20023;-66
2022/08/21 04:03:31;;;;;;;0.30;0.30;;;;;;;14.49;72.48;100325.63;5125747;28;20054;-66
2022/08/21 04:05:57;;;;;;;0.30;0.30;;;;;;;14.43;72.90;100322.28;5107929;28;20024;-66
2022/08/21 04:08:22;;;;;;;0.30;0.30;;;;;;;14.37;73.14;100324.19;5125586;28;20023;-66
2022/08/21 04:10:53;;;;;;;0.30;0.30;;;;;;;14.35;73.82;100325.97;5126193;28;20023;-66
2022/08/21 04:13:19;;;;;;;0.38;0.38;;;;;;;14.34;74.16;100312.97;5125887;28;20031;-66
2022/08/21 04:15:44;;;;;;;0.32;0.32;;;;;;;14.36;74.49;100326.84;5125421;28;20359;-66
2022/08/21 04:18:10;;;;;;;0.30;0.30;;;;;;;14.35;74.16;100320.75;5107410;28;20024;-65
2022/08/21 04:20:35;;;;;;;0.30;0.30;;;;;;;14.42;74.06;100328.44;5126827;28;20038;-65
2022/08/21 04:23:02;;;;;;;0.30;0.30;;;;;;;14.43;74.14;100333.59;5129835;28;20095;-66
2022/08/21 04:25:28;;;;;;;0.30;0.30;;;;;;;14.42;74.29;100325.81;5129855;28;20027;-66
2022/08/21 04:27:54;;;;;;;0.30;0.30;;;;;;;14.50;74.29;100339.53;5129738;28;20043;-65
2022/08/21 04:30:20;;;;;;;0.22;0.22;;;;;;;14.65;74.78;100340.88;5129877;28;20070;-65
2022/08/21 04:32:47;;;;;;;0.20;0.20;;;;;;;14.82;74.63;100332.63;5129945;28;20031;-65
2022/08/21 04:35:14;;;;;;;0.30;0.30;;;;;;;15.10;75.30;100333.59;5111501;28;20070;-65
2022/08/21 04:37:39;;;;;;;0.30;0.30;;;;;;;15.54;75.62;100345.41;5129085;28;20028;-64
2022/08/21 04:40:06;;;;;;;0.20;0.20;;;;;;;16.05;75.49;100338.63;5129678;28;20038;-65
2022/08/21 04:42:32;;;;;;;0.35;0.35;;;;;;;16.56;75.48;100338.72;5129463;28;20024;-64
2022/08/21 04:44:58;;;;;;;1.52;1.42;;;;;;;17.13;75.47;100331.47;5129513;28;20472;-65
2022/08/21 04:47:24;;;;;;;0.20;0.20;;;;;;;17.62;75.55;100334.00;5129438;28;20098;-65
2022/08/21 04:49:49;;;;;;;0.30;0.30;;;;;;;18.14;74.88;100337.25;5129524;28;20031;-66
2022/08/21 04:52:21;;;;;;;0.20;0.20;;;;;;;18.56;74.16;100336.34;5129004;28;20042;-66
2022/08/21 04:54:48;;;;;;;0.30;0.30;;;;;;;18.98;74.02;100331.03;5129298;28;20031;-66
2022/08/21 04:57:15;;;;;;;0.20;0.20;;;;;;;19.42;73.83;100335.22;5129300;28;20106;-65
2022/08/21 04:59:46;;;;;;;0.55;0.55;;;;;;;19.85;73.03;100320.06;5129051;28;20020;-65
2022/08/21 05:02:13;;;;;;;0.20;0.20;;;;;;;20.33;72.58;100325.63;5129118;28;20046;-65
2022/08/21 05:04:43;;;;;;;0.20;0.20;;;;;;;20.75;72.10;100328.75;5129219;28;20024;-66
2022/08/21 05:07:16;;;;;;;0.20;0.20;;;;;;;21.15;70.92;100327.59;5128786;28;20497;-65
2022/08/21 05:09:41;;;;;;;0.20;0.20;;;;;;;21.34;69.75;100326.59;5129003;28;20020;-66
2022/08/21 05:12:07;;;;;;;0.20;0.20;;;;;;;21.65;69.79;100335.44;5129008;28;20027;-65
2022/08/21 05:14:33;;;;;;;0.20;0.20;;;;;;;21.97;68.82;100330.13;5128832;28;20019;-65
2022/08/21 05:16:58;;;;;;;0.20;0.20;;;;;;;22.34;68.16;100327.13;5129103;28;20019;-66
2022/08/21 05:19:24;;;;;;;0.20;0.20;;;;;;;22.73;67.87;100329.28;5128887;28;20028;-65
2022/08/21 05:21:50;;;;;;;0.20;0.20;;;;;;;23.13;67.91;100331.25;5128486;28;20035;-65
2022/08/21 05:24:15;;;;;;;0.20;0.20;;;;;;;23.63;67.18;100333.41;5128875;28;20027;-65
2022/08/21 05:26:41;;;;;;;0.20;0.20;;;;;;;23.93;65.00;100329.69;5128522;28;20336;-66
2022/08/21 05:29:06;;;;;;;0.10;0.10;;;;;;;23.77;62.01;100330.72;5093262;28;20452;-65
2022/08/21 05:31:32;;;;;;;0.20;0.20;;;;;;;23.23;59.71;100329.72;5127834;28;20020;-66
2022/08/21 05:33:57;;;;;;;0.20;0.20;;;;;;;22.46;58.74;100333.44;5127798;28;20023;-65
2022/08/21 05:36:23;;;;;;;0.20;0.20;;;;;;;21.75;59.53;100328.69;5128225;28;20016;-65
2022/08/21 05:38:50;;;;;;;7.78;1.00;;;;;;;21.36;59.31;100335.28;5128666;28;20036;-66
2022/08/21 05:41:15;;;;;;;0.20;0.20;;;;;;;20.95;58.47;100334.78;5128127;28;20087;-65
2022/08/21 05:43:40;;;;;;;0.20;0.20;;;;;;;20.65;58.73;100327.53;5128511;28;20049;-65
2022/08/21 05:46:07;;;;;;;0.20;0.20;;;;;;;20.39;59.17;100335.00;5128329;28;20020;-65
2022/08/21 05:48:34;;;;;;;0.25;0.25;;;;;;;20.30;59.06;100337.16;5128210;28;20053;-65
2022/08/21 05:51:06;;;;;;;0.20;0.20;;;;;;;20.23;59.15;100340.19;5128592;28;20030;-65
2022/08/21 05:53:31;;;;;;;0.30;0.30;;;;;;;20.17;59.10;100342.22;5109739;28;20057;-65
2022/08/21 05:55:56;;;;;;;0.20;0.20;;;;;;;20.13;58.89;100345.06;5127973;28;20039;-66
2022/08/21 05:58:25;;;;;;;0.20;0.20;;;;;;;20.15;59.58;100332.69;5109775;28;20015;-66
2022/08/21 06:00:52;;;;;;;0.20;0.20;;;;;;;20.25;59.10;100344.47;5127795;28;20407;-65
2022/08/21 06:03:25;;;;;;;0.30;0.30;;;;;;;20.52;59.88;100341.38;5127728;28;20047;-66
2022/08/21 06:05:52;;;;;;;0.20;0.20;;;;;;;21.14;60.18;100336.44;5128183;28;20076;-65
2022/08/21 06:08:19;;;;;;;0.17;0.17;;;;;;;21.85;59.85;100337.00;5127696;28;20593;-65
2022/08/21 06:10:46;;;;;;;0.20;0.20;;;;;;;22.49;58.89;100330.63;5127823;28;20028;-66
2022/08/21 06:13:12;;;;;;;0.32;0.32;;;;;;;22.97;57.25;100329.53;5127982;28;20042;-65
2022/08/21 06:15:38;;;;;;;0.20;0.20;;;;;;;23.24;56.63;100334.03;5127709;28;20024;-65
2022/08/21 06:18:04;;;;;;;0.20;0.20;;;;;;;23.59;57.24;100337.22;5127854;28;20024;-65
2022/08/21 06:20:29;;;;;;;0.20;0.20;;;;;;;23.89;56.87;100320.25;5127656;28;20530;-65
2022/08/21 06:22:55;;;;;;;0.20;0.20;;;;;;;24.49;56.83;100326.00;5127418;28;20031;-65
2022/08/21 06:25:20;;;;;;;0.10;0.10;;;;;;;25.17;57.08;100327.56;5127555;28;20023;-66
2022/08/21 06:27:46;;;;;;;0.10;0.10;;;;;;;25.76;55.20;100326.94;5127278;28;20122;-65
2022/08/21 06:30:13;;;;;;;0.20;0.20;;;;;;;25.88;53.65;100335.81;5127582;28;20075;-66
2022/08/21 06:32:39;;;;;;;0.10;0.10;;;;;;;25.98;52.55;100335.00;5127773;28;20042;-66
2022/08/21 06:35:05;;;;;;;0.20;0.20;;;;;;;25.86;50.92;100327.97;5127305;28;20459;-67
2022/08/21 06:37:31;;;;;;;0.20;0.20;;;;;;;25.64;50.30;100329.53;5126808;28;20028;-66
2022/08/21 06:39:56;;;;;;;0.20;0.20;;;;;;;25.40;50.64;100327.69;5126957;28;20016;-66
2022/08/21 06:42:22;;;;;;;0.10;0.10;;;;;;;25.66;52.33;100332.94;5127229;28;20053;-65
2022/08/21 06:44:48;;;;;;;1.30;1.23;;;;;;;26.34;51.18;100329.69;5108552;28;20027;-66
2022/08/21 06:47:14;;;;;;;0.10;0.10;;;;;;;26.84;50.14;100328.53;5127117;28;20027;-65
2022/08/21 06:49:39;;;;;;;0.20;0.20;;;;;;;27.06;49.37;100326.03;5108473;28;20031;-65
2022/08/21 06:52:10;;;;;;;12.35;2.15;;;;;;;27.17;49.73;100318.03;5108130;28;20031;-65
2022/08/21 06:54:36;;;;;;;0.10;0.10;;;;;;;26.84;47.48;100317.03;5126891;28;20034;-65
2022/08/21 06:57:01;;;;;;;0.47;0.47;;;;;;;26.53;49.32;100330.09;5126849;28;20020;-65
2022/08/21 06:59:26;;;;;;;0.20;0.20;;;;;;;26.60;49.08;100315.31;5126697;28;20015;-65
2022/08/21 07:01:52;;;;;;;0.10;0.10;;;;;;;27.14;49.48;100306.75;5126771;28;20016;-65
2022/08/21 07:04:18;;;;;;;0.43;0.43;;;;;;;27.53;48.77;100308.94;5126723;28;20038;-66
2022/08/21 07:06:43;;;;;;;0.10;0.10;;;;;;;27.84;47.22;100311.78;5126896;28;20075;-64
2022/08/21 07:09:10;;;;;;;0.10;0.10;;;;;;;27.69;46.63;100311.22;5108534;28;20016;-65
2022/08/21 07:11:36;;;;;;;0.10;0.10;;;;;;;27.01;46.32;100306.88;5091704;28;20027;-66
2022/08/21 07:14:02;;;;;;;0.10;0.10;;;;;;;26.13;46.77;100312.69;5108202;28;20420;-66
2022/08/21 07:16:28;;;;;;;0.10;0.10;;;;;;;25.54;47.47;100317.88;5126309;28;20047;-65
2022/08/21 07:18:53;;;;;;;0.20;0.20;;;;;;;25.02;48.33;100318.03;5108503;28;20023;-65
2022/08/21 07:21:19;;;;;;;0.20;0.20;;;;;;;24.57;48.75;100320.16;5126670;28;20023;-66
2022/08/21 07:23:48;;;;;;;0.80;0.80;;;;;;;24.13;49.24;100319.56;5126285;28;20027;-65
2022/08/21 07:26:15;;;;;;;0.17;0.17;;;;;;;23.83;50.65;100323.31;5126114;28;20030;-63
2022/08/21 07:28:40;;;;;;;0.10;0.10;;;;;;;24.30;50.74;100317.63;5126529;28;20023;-66
2022/08/21 07:31:08;;;;;;;0.10;0.10;;;;;;;24.93;49.38;100320.38;5126243;28;20550;-66
2022/08/21 07:33:34;;;;;;;0.30;0.30;;;;;;;25.21;48.93;100307.78;5126192;28;20072;-65
2022/08/21 07:36:00;;;;;;;0.20;0.20;;;;;;;24.84;47.69;100303.25;5125805;28;20085;-65
2022/08/21 07:38:26;;;;;;;0.10;0.10;;;;;;;24.11;48.95;100310.88;5126267;28;20030;-65
2022/08/21 07:40:55;;;;;;;0.10;0.10;;;;;;;23.38;50.54;100316.44;5126115;28;20020;-67
2022/08/21 07:43:21;;;;;;;0.13;0.13;;;;;;;22.92;51.44;100318.41;5126198;28;20046;-65
2022/08/21 07:45:49;;;;;;;0.20;0.20;;;;;;;22.63;52.01;100313.97;5126240;28;20066;-65
2022/08/21 07:48:14;;;;;;;0.20;0.20;;;;;;;22.52;52.95;100309.28;5126051;28;20027;-66
2022/08/21 07:50:40;;;;;;;0.20;0.20;;;;;;;22.24;52.72;100305.66;5126215;28;20027;-65
2022/08/21 07:53:07;;;;;;;0.20;0.20;;;;;;;22.08;52.94;100310.16;5126032;28;20039;-66
2022/08/21 07:55:33;;;;;;;0.20;0.20;;;;;;;21.75;53.64;100310.19;5125104;28;20091;-66
2022/08/21 07:58:01;;;;;;;0.38;0.38;;;;;;;21.51;54.54;100309.78;5125892;28;20054;-65
2022/08/21 08:00:28;;;;;;;1.33;1.00;;;;;;;21.35;55.41;100317.72;5125608;28;20024;-65
2022/08/21 08:02:55;;;;;;;0.20;0.20;;;;;;;21.42;55.27;100309.38;5125690;28;20039;-66
2022/08/21 08:05:25;;;;;;;0.20;0.20;;;;;;;21.72;55.45;100309.50;5126114;28;20033;-65
2022/08/21 08:07:51;;;;;;;0.20;0.20;;;;;;;22.14;54.33;100313.28;5125574;28;20031;-64
2022/08/21 08:10:17;;;;;;;0.20;0.20;;;;;;;22.23;53.52;100306.59;5107452;28;20107;-66
2022/08/21 08:12:44;;;;;;;0.20;0.20;;;;;;;22.04;53.77;100305.03;5125763;28;20031;-65
2022/08/21 08:15:14;;;;;;;3.25;1.17;;;;;;;22.64;53.28;100302.44;5125471;28;20027;-65
2022/08/21 08:17:39;;;;;;;0.20;0.20;;;;;;;23.59;51.33;100305.44;5125528;28;20028;-65
2022/08/21 08:20:07;;;;;;;0.20;0.20;;;;;;;24.42;49.25;100300.88;5125694;28;20026;-64
2022/08/21 08:22:38;;;;;;;0.20;0.20;;;;;;;25.22;47.58;100287.38;5125262;28;20046;-65
2022/08/21 08:25:05;;;;;;;0.20;0.20;;;;;;;25.97;45.94;100296.09;5125916;28;20035;-66
2022/08/21 08:27:31;;;;;;;0.10;0.10;;;;;;;26.53;43.16;100288.38;5125233;28;20055;-65
2022/08/21 08:29:59;;;;;;;0.30;0.30;;;;;;;26.86;42.58;100280.47;5125879;28;20028;-65
2022/08/21 08:32:25;;;;;;;0.10;0.10;;;;;;;26.98;41.42;100281.31;5125567;28;20081;-65
2022/08/21 08:34:51;;;;;;;0.10;0.10;;;;;;;27.39;41.98;100284.28;5125345;28;20019;-64
2022/08/21 08:37:18;;;;;;;0.10;0.10;;;;;;;27.98;41.34;100278.59;5125295;28;20119;-64
2022/08/21 08:39:43;;;;;;;0.10;0.10;;;;;;;28.66;39.11;100269.28;5125465;28;20050;-65
2022/08/21 08:42:16;;;;;;;0.17;0.17;;;;;;;29.16;38.51;100272.94;5125575;28;20027;-65
2022/08/21 08:44:46;;;;;;;0.35;0.35;;;;;;;29.72;37.87;100263.56;5106920;28;20023;-64
2022/08/21 08:47:16;;;;;;;0.10;0.10;;;;;;;30.18;36.26;100270.00;5125570;28;20031;-65
2022/08/21 08:50:10;;;;;;;0.40;0.40;;;;;;;30.16;35.13;100269.25;5107156;28;20466;-65
2022/08/21 08:52:43;;;;;;;0.10;0.10;;;;;;;29.87;35.96;100277.34;5125262;28;20047;-65
2022/08/21 08:55:09;;;;;;;0.20;0.20;;;;;;;29.65;36.03;100272.16;5125296;28;20028;-65
2022/08/21 08:57:36;;;;;;;0.10;0.10;;;;;;;29.36;36.55;100272.13;5106415;28;20036;-65
2022/08/21 09:00:11;;;;;;;0.10;0.10;;;;;;;29.25;35.95;100276.59;5125293;28;20059;-64
2022/08/21 09:02:43;;;;;;;0.10;0.10;;;;;;;29.32;35.22;100274.22;5125387;28;20046;-64
2022/08/21 09:05:27;;;;;;;0.10;0.10;;;;;;;29.49;36.18;100274.53;5125050;28;20023;-64
2022/08/21 09:07:58;;;;;;;0.30;0.30;;;;;;;29.87;35.09;100277.34;5128054;28;20068;-65
2022/08/21 09:10:52;;;;;;;0.15;0.15;;;;;;;29.11;36.39;100274.38;5129145;28;20027;-63
2022/08/21 09:13:48;;;;;;;0.10;0.10;;;;;;;28.12;38.45;100284.56;5128896;28;20371;-65
2022/08/21 09:16:48;;;;;;;0.10;0.10;;;;;;;27.83;39.91;100275.38;5128677;28;20032;-66
2022/08/21 09:19:25;;;;;;;5.38;1.90;;;;;;;27.85;39.71;100278.78;5128968;28;20111;-64
2022/08/21 09:21:59;;;;;;;0.10;0.10;;;;;;;28.06;39.86;100269.94;5128930;28;20020;-64
2022/08/21 09:24:49;;;;;;;0.10;0.10;;;;;;;28.33;40.26;100277.44;5110521;28;20105;-65
2022/08/21 09:27:18;;;;;;;0.90;0.85;;;;;;;28.24;40.69;100272.00;5128224;28;20091;-65
2022/08/21 09:29:50;;;;;;;0.10;0.10;;;;;;;28.39;39.09;100270.69;5128426;28;20039;-65
2022/08/21 09:32:19;;;;;;;0.10;0.10;;;;;;;28.58;38.20;100269.94;5128201;28;20026;-65
2022/08/21 09:35:05;;;;;;;0.10;0.10;;;;;;;28.27;38.47;100279.75;5110125;28;20058;-65
2022/08/21 09:37:34;;;;;;;0.10;0.10;;;;;;;28.41;38.01;100266.09;5128211;28;20027;-65
2022/08/21 09:40:01;;;;;;;0.10;0.10;;;;;;;28.69;39.06;100270.84;5110388;28;20023;-65
2022/08/21 09:42:32;;;;;;;0.10;0.10;;;;;;;29.11;38.08;100267.16;5128506;28;20027;-65
2022/08/21 09:45:27;;;;;;;0.10;0.10;;;;;;;29.38;37.64;100268.31;5128386;28;20024;-65
2022/08/21 09:47:52;;;;;;;5.82;1.67;;;;;;;29.56;37.07;100271.16;5110600;28;20036;-63
2022/08/21 09:50:23;;;;;;;0.10;0.10;;;;;;;29.30;37.40;100269.03;5128263;28;20060;-65
2022/08/21 09:52:54;;;;;;;0.10;0.10;;;;;;;28.90;37.17;100254.72;5128067;28;20027;-64
2022/08/21 09:58:14;;;;;;;0.10;0.10;;;;;;;28.52;36.83;100264.28;5128056;28;20103;-64
2022/08/21 10:00:40;;;;;;;0.10;0.10;;;;;;;28.35;37.74;100258.63;5128405;28;20027;-64
2022/08/21 10:03:18;;;;;;;0.10;0.10;;;;;;;28.60;38.16;100253.78;5127899;28;20035;-65
2022/08/21 10:05:56;;;;;;;0.10;0.10;;;;;;;29.08;36.15;100259.44;5128118;28;20023;-64
2022/08/21 10:08:23;;;;;;;0.82;0.80;;;;;;;29.06;35.97;100259.56;5108971;28;20028;-65
2022/08/21 10:10:57;;;;;;;0.30;0.30;;;;;;;29.01;36.07;100256.47;5127684;28;20050;-65
2022/08/21 10:13:49;;;;;;;0.10;0.10;;;;;;;29.42;36.66;100258.19;5127770;28;20020;-64
2022/08/21 10:16:26;;;;;;;0.40;0.40;;;;;;;29.89;35.12;100240.59;5127239;28;20031;-62
2022/08/21 10:19:28;;;;;;;0.55;0.55;;;;;;;29.85;34.48;100242.72;5127019;28;20024;-62
2022/08/21 10:22:09;;;;;;;0.10;0.10;;;;;;;29.15;35.76;100244.56;5127409;28;20020;-63
2022/08/21 10:24:55;;;;;;;0.52;0.52;;;;;;;28.68;36.18;100240.59;5127407;28;20467;-61
2022/08/21 10:27:45;;;;;;;1.52;1.42;;;;;;;28.19;35.38;100233.22;5127296;28;20036;-63
2022/08/21 10:30:10;;;;;;;0.22;0.22;;;;;;;28.28;35.89;100220.03;5127413;28;20031;-63
2022/08/21 10:32:41;;;;;;;0.10;0.10;;;;;;;27.81;37.11;100226.69;5127286;28;20152;-62
2022/08/21 10:35:09;;;;;;;0.10;0.10;;;;;;;27.87;36.90;100234.16;5127210;28;20015;-62
2022/08/21 10:37:47;;;;;;;0.10;0.10;;;;;;;28.18;36.48;100228.03;5127144;28;20027;-61
2022/08/21 10:40:18;;;;;;;0.10;0.10;;;;;;;28.31;36.97;100227.78;5108781;28;20019;-61
2022/08/21 10:42:59;;;;;;;0.10;0.10;;;;;;;28.52;36.64;100224.25;5127053;28;20057;-62
2022/08/21 10:45:43;;;;;;;0.10;0.10;;;;;;;28.77;35.74;100220.25;5127449;28;20023;-63
2022/08/21 10:48:22;;;;;;;0.30;0.30;;;;;;;29.09;35.05;100229.03;5126737;28;20020;-64
2022/08/21 10:50:59;;;;;;;0.10;0.10;;;;;;;28.61;35.78;100220.75;5127083;28;20027;-64
2022/08/21 10:53:44;;;;;;;0.10;0.10;;;;;;;29.16;35.08;100240.88;5126732;28;20016;-64
2022/08/21 10:56:24;;;;;;;0.10;0.10;;;;;;;28.91;35.37;100231.53;5108701;28;20039;-63
2022/08/21 10:59:04;;;;;;;0.10;0.10;;;;;;;28.85;35.52;100227.56;5126973;28;20321;-64
2022/08/21 11:02:09;;;;;;;0.10;0.10;;;;;;;28.62;35.31;100224.28;5127206;28;20077;-63
2022/08/21 11:04:48;;;;;;;0.10;0.10;;;;;;;28.51;35.68;100230.56;5127004;28;20119;-63
2022/08/21 11:07:22;;;;;;;0.45;0.45;;;;;;;28.44;35.38;100215.09;5126591;28;20035;-64
2022/08/21 11:09:49;;;;;;;0.10;0.10;;;;;;;28.48;35.61;100228.16;5126533;28;20102;-64
2022/08/21 11:12:23;;;;;;;0.10;0.10;;;;;;;28.57;35.18;100220.19;5126531;28;20020;-63
2022/08/21 11:14:56;;;;;;;0.10;0.10;;;;;;;28.44;34.58;100232.94;5126545;28;20032;-63
2022/08/21 11:17:34;;;;;;;0.10;0.10;;;;;;;28.44;34.32;100233.78;5126543;28;20418;-63
2022/08/21 11:20:09;;;;;;;0.10;0.10;;;;;;;28.65;34.69;100226.69;5126194;28;20046;-63
2022/08/21 11:22:50;;;;;;;0.47;0.47;;;;;;;29.19;34.10;100240.59;5126372;28;20023;-64
2022/08/21 11:25:36;;;;;;;0.20;0.20;;;;;;;29.47;32.73;100231.03;5126372;28;20047;-64
2022/08/21 11:28:22;;;;;;;0.10;0.10;;;;;;;29.38;32.31;100241.59;5125898;28;20040;-64
2022/08/21 11:30:57;;;;;;;0.10;0.10;;;;;;;27.86;33.45;100251.13;5125336;28;20028;-63
2022/08/21 11:33:57;;;;;;;0.10;0.10;;;;;;;26.17;36.07;100239.66;5126124;28;20047;-64
2022/08/21 11:36:31;;;;;;;0.10;0.10;;;;;;;25.05;38.41;100248.78;5125758;28;20102;-64